KTVF

Details ICAO KTVF (TVF)
Name THIEF RIVER FALLS RGNL
Region United States
Timezone America/Chicago (UTC-6.0)
Plans Departing 2
Arriving 2
Stats Elevation 1,116 ft / 340 m (AMSL)
Location 48.065828° -96.185155°
Runways 2
Magnetic Variation 2.334° E
Sunrise 2017-12-15 14:09:47 UTC / 2017-12-15 08:09:47 Local
Sunset 2017-12-15 22:33:02 UTC / 2017-12-15 16:33:02 Local
Advertisement - Login to hide

Runways

ID Width Length Bearing (true) Bearing (mag) Surface Threshold Offset Overrun Length
03 75 ft / 23 m 4,992 ft / 1,522 m 39.13° 36.80° Asphalt 0 ft / 0 m 0 ft / 0 m
13 150 ft / 46 m 6,495 ft / 1,980 m 134.86° 132.53° Asphalt 0 ft / 0 m 0 ft / 0 m
21 75 ft / 23 m 4,992 ft / 1,522 m 219.14° 216.81° Asphalt 0 ft / 0 m 0 ft / 0 m
31 150 ft / 46 m 6,495 ft / 1,980 m 314.87° 312.54° Asphalt 0 ft / 0 m 0 ft / 0 m

Map

Weather


0- 5 10 15 20 25 30 35+ Temperature / ° C

Clouds and Precipitation
Forecast for 2017-12-16 06:00 UTC. Updated 13 minutes ago

Ground ~20,000 ft ~40,000 ft Winds

METAR

KTVF 160326Z AUTO 09011KT 4SM -SN BR FEW022 SCT030 OVC037 M09/M11 A2966 RMK AO2 P0000 FZRANO

TAF

TAF KTVF 152334Z 1600/1624 12009KT 1SM -SN OVC020 FM160200 11009KT 2SM -SN OVC020 FM160700 11010KT 3SM -SN OVC010 TEMPO 1608/1609 2SM -SN OVC003 FM160900 11009KT 4SM -SN OVC010 FM161500 15007KT P6SM OVC008 FM162300 26005KT P6SM BKN010

Frequencies

Unicom 122.80 MHz CTAF/UNICOM
Warning: Do not use this data for real-world aviation or navigation. No guarantee of current accuracy is given.